createdAt,value
2023-09-23T00:00:15.026Z,93718.80
2023-09-23T00:03:02.914Z,93719.00
2023-09-23T00:05:33.403Z,93711.00
2023-09-23T00:08:01.259Z,93700.80
2023-09-23T00:10:28.993Z,93700.00
2023-09-23T00:12:56.955Z,93707.80
2023-09-23T00:15:25.080Z,93707.40
2023-09-23T00:17:55.304Z,93709.20
2023-09-23T00:20:23.626Z,93721.00
2023-09-23T00:22:54.036Z,93715.40
2023-09-23T00:25:21.982Z,93711.00
2023-09-23T00:27:50.341Z,93701.60
2023-09-23T00:30:19.201Z,93701.00
2023-09-23T00:32:46.971Z,93694.40
2023-09-23T00:35:14.785Z,93688.40
2023-09-23T00:37:45.033Z,93687.00
2023-09-23T00:40:17.985Z,93686.40
2023-09-23T00:42:48.444Z,93688.40
2023-09-23T00:45:24.035Z,93679.20
2023-09-23T00:47:53.295Z,93671.20
2023-09-23T00:50:21.432Z,93676.00
2023-09-23T00:52:50.629Z,93665.60
2023-09-23T00:55:18.953Z,93665.00
2023-09-23T00:57:50.227Z,93656.00
2023-09-23T01:00:28.461Z,93656.20
2023-09-23T01:02:57.481Z,93658.80
2023-09-23T01:05:28.812Z,93648.40
2023-09-23T01:07:57.515Z,93645.60
2023-09-23T01:10:25.344Z,93639.60
2023-09-23T01:13:05.022Z,93643.80
2023-09-23T01:15:32.972Z,93647.80
2023-09-23T01:18:00.604Z,93646.80
2023-09-23T01:20:28.218Z,93658.60
2023-09-23T01:22:56.171Z,93666.20
2023-09-23T01:25:26.169Z,93667.40
2023-09-23T01:27:54.462Z,93652.00
2023-09-23T01:30:23.029Z,93648.60
2023-09-23T01:32:51.779Z,93646.40
2023-09-23T01:35:22.000Z,93650.00
2023-09-23T01:37:51.751Z,93648.00
2023-09-23T01:40:19.615Z,93656.80
2023-09-23T01:42:47.803Z,93671.00
2023-09-23T01:45:15.873Z,93671.80
2023-09-23T01:47:45.659Z,93668.80
2023-09-23T01:50:15.516Z,93660.20
2023-09-23T01:52:43.381Z,93649.60
2023-09-23T01:55:14.032Z,93640.00
2023-09-23T01:57:41.748Z,93650.00
2023-09-23T02:00:16.192Z,93657.40
2023-09-23T02:02:44.026Z,93657.80
2023-09-23T02:05:11.986Z,93658.20
2023-09-23T02:07:41.193Z,93665.80
2023-09-23T02:10:10.163Z,93657.80
2023-09-23T02:12:37.940Z,93660.80
2023-09-23T02:15:07.471Z,93670.60
2023-09-23T02:17:37.576Z,93666.20
2023-09-23T02:20:11.517Z,93663.60
2023-09-23T02:22:39.208Z,93665.40
2023-09-23T02:25:06.889Z,93665.80
2023-09-23T02:27:35.141Z,93664.60
2023-09-23T02:30:03.626Z,93665.40
2023-09-23T02:32:31.873Z,93668.80
2023-09-23T02:34:59.738Z,93669.00
2023-09-23T02:37:28.576Z,93667.60
2023-09-23T02:39:56.186Z,93683.00
2023-09-23T02:42:23.897Z,93685.40
2023-09-23T02:44:51.538Z,93679.40
2023-09-23T02:47:19.747Z,93678.40
2023-09-23T02:49:47.584Z,93681.00
2023-09-23T02:52:15.786Z,93678.60
2023-09-23T02:54:43.478Z,93675.40
2023-09-23T02:57:13.570Z,93674.60
2023-09-23T02:59:43.298Z,93683.00
2023-09-23T03:02:11.346Z,93681.20
2023-09-23T03:04:39.198Z,93684.80
2023-09-23T03:07:08.216Z,93687.60
2023-09-23T03:09:36.006Z,93691.60
2023-09-23T03:12:06.087Z,93689.60
2023-09-23T03:14:44.601Z,93692.40
2023-09-23T03:17:14.474Z,93700.00
2023-09-23T03:19:42.442Z,93696.60
2023-09-23T03:22:10.346Z,93690.40
2023-09-23T03:24:38.557Z,93691.20
2023-09-23T03:27:06.926Z,93687.80
2023-09-23T03:29:35.217Z,93687.80
2023-09-23T03:32:03.070Z,93686.80
2023-09-23T03:34:30.841Z,93691.60
2023-09-23T03:37:00.126Z,93697.20
2023-09-23T03:39:40.795Z,93704.60
2023-09-23T03:42:09.688Z,93706.40
2023-09-23T03:44:37.867Z,93700.60
2023-09-23T03:47:05.559Z,93700.00
2023-09-23T03:49:33.408Z,93706.20
2023-09-23T03:52:01.349Z,93703.60
2023-09-23T03:54:29.871Z,93707.40
2023-09-23T03:56:58.289Z,93714.40
2023-09-23T03:59:28.303Z,93721.60
2023-09-23T04:01:57.369Z,93719.60
2023-09-23T04:04:25.410Z,93712.20
2023-09-23T04:06:53.384Z,93711.40
2023-09-23T04:09:24.433Z,93712.20
2023-09-23T04:11:53.806Z,93710.60
2023-09-23T04:14:21.904Z,93716.80
2023-09-23T04:16:49.564Z,93716.60
2023-09-23T04:19:17.199Z,93716.80
2023-09-23T04:21:44.818Z,93716.40
2023-09-23T04:24:12.489Z,93711.80
2023-09-23T04:26:40.239Z,93717.80
2023-09-23T04:29:08.810Z,93713.60
2023-09-23T04:31:36.724Z,93713.80
2023-09-23T04:34:04.350Z,93711.40
2023-09-23T04:36:32.145Z,93713.80
2023-09-23T04:38:59.967Z,93714.60
2023-09-23T04:41:27.616Z,93708.60
2023-09-23T04:43:55.241Z,93710.00
2023-09-23T04:46:23.206Z,93715.40
2023-09-23T04:48:51.172Z,93716.60
2023-09-23T04:51:18.854Z,93723.20
2023-09-23T04:53:46.682Z,93718.80
2023-09-23T04:56:18.590Z,93716.00
2023-09-23T04:58:46.424Z,93717.20
2023-09-23T05:01:15.680Z,93715.20
2023-09-23T05:03:43.770Z,93709.00
2023-09-23T05:06:12.133Z,93713.80
2023-09-23T05:08:42.347Z,93706.20
2023-09-23T05:11:13.247Z,93703.60
2023-09-23T05:13:42.225Z,93699.20
2023-09-23T05:16:10.589Z,93702.20
2023-09-23T05:18:39.816Z,93708.00
2023-09-23T05:21:10.572Z,93709.40
2023-09-23T05:23:38.820Z,93714.00
2023-09-23T05:26:08.484Z,93717.80
2023-09-23T05:28:36.714Z,93713.00
2023-09-23T05:31:06.747Z,93709.80
2023-09-23T05:33:34.452Z,93713.20
2023-09-23T05:36:02.202Z,93711.60
2023-09-23T05:38:29.940Z,93716.60
2023-09-23T05:40:58.186Z,93724.40
2023-09-23T05:43:26.029Z,93735.00
2023-09-23T05:45:53.678Z,93740.40
2023-09-23T05:48:22.048Z,93741.60
2023-09-23T05:50:50.673Z,93747.80
2023-09-23T05:53:18.476Z,93759.00
2023-09-23T05:55:46.932Z,93777.40
2023-09-23T05:58:14.704Z,93782.40
2023-09-23T06:00:42.477Z,93790.00
2023-09-23T06:03:10.273Z,93794.00
2023-09-23T06:05:39.794Z,93794.00
2023-09-23T06:08:07.709Z,93797.80
2023-09-23T06:10:38.108Z,93799.80
2023-09-23T06:13:06.996Z,93805.60
2023-09-23T06:15:35.134Z,93808.00
2023-09-23T06:18:02.962Z,93818.20
2023-09-23T06:20:30.849Z,93823.00
2023-09-23T06:22:58.530Z,93820.40
2023-09-23T06:25:26.395Z,93811.80
2023-09-23T06:27:54.210Z,93815.80
2023-09-23T06:30:21.969Z,93830.20
2023-09-23T06:32:49.745Z,93851.20
2023-09-23T06:35:17.777Z,93847.00
2023-09-23T06:37:45.889Z,93829.20
2023-09-23T06:40:13.875Z,93819.60
2023-09-23T06:42:41.852Z,93824.00
2023-09-23T06:45:10.889Z,93835.20
2023-09-23T06:47:38.979Z,93844.00
2023-09-23T06:50:06.914Z,93841.20
2023-09-23T06:52:35.057Z,93839.00
2023-09-23T06:55:02.711Z,93845.20
2023-09-23T06:57:31.217Z,93846.60
2023-09-23T06:59:58.834Z,93850.40
2023-09-23T07:02:26.629Z,93859.40
2023-09-23T07:04:54.585Z,93857.80
2023-09-23T07:07:22.212Z,93866.00
2023-09-23T07:09:52.503Z,93864.00
2023-09-23T07:12:22.251Z,93863.20
2023-09-23T07:14:50.830Z,93859.20
2023-09-23T07:17:19.126Z,93857.60
2023-09-23T07:19:47.295Z,93858.60
2023-09-23T07:22:14.918Z,93859.20
2023-09-23T07:24:42.734Z,93848.40
2023-09-23T07:27:10.474Z,93843.00
2023-09-23T07:29:40.925Z,93847.80
2023-09-23T07:32:08.645Z,93849.20
2023-09-23T07:34:36.581Z,93838.40
2023-09-23T07:37:04.744Z,93835.00
2023-09-23T07:39:32.449Z,93834.00
2023-09-23T07:42:00.456Z,93830.20
2023-09-23T07:44:28.192Z,93825.80
2023-09-23T07:46:55.863Z,93834.00
2023-09-23T07:49:23.810Z,93837.40
2023-09-23T07:51:51.712Z,93836.00
2023-09-23T07:54:20.791Z,93852.40
2023-09-23T07:56:48.674Z,93862.60
2023-09-23T07:59:16.351Z,93863.80
2023-09-23T08:01:44.148Z,93865.60
2023-09-23T08:04:12.132Z,93865.20
2023-09-23T08:06:39.777Z,93863.20
2023-09-23T08:09:07.485Z,93863.00
2023-09-23T08:11:35.533Z,93869.00
2023-09-23T08:14:03.209Z,93871.40
2023-09-23T08:16:30.905Z,93872.00
2023-09-23T08:18:58.926Z,93862.00
2023-09-23T08:21:26.558Z,93866.40
2023-09-23T08:23:54.328Z,93865.80
2023-09-23T08:26:22.344Z,93873.40
2023-09-23T08:28:50.014Z,93878.20
2023-09-23T08:31:18.310Z,93880.60
2023-09-23T08:33:47.082Z,93886.40
2023-09-23T08:36:14.939Z,93891.80
2023-09-23T08:38:43.053Z,93898.80
2023-09-23T08:41:10.788Z,93904.60
2023-09-23T08:43:38.821Z,93911.60
2023-09-23T08:46:07.222Z,93911.60
2023-09-23T08:48:35.032Z,93909.00
2023-09-23T08:51:03.490Z,93917.00
2023-09-23T08:53:32.389Z,93926.40
2023-09-23T08:56:00.410Z,93932.80
2023-09-23T08:58:28.533Z,93933.20
2023-09-23T09:00:58.658Z,93928.20
2023-09-23T09:03:27.121Z,93933.20
2023-09-23T09:05:54.838Z,93941.20
2023-09-23T09:08:22.648Z,93944.00
2023-09-23T09:10:50.474Z,93947.20
2023-09-23T09:13:18.654Z,93953.00
2023-09-23T09:15:46.396Z,93959.80
2023-09-23T09:18:14.347Z,93961.40
2023-09-23T09:20:43.439Z,93964.20
2023-09-23T09:23:11.543Z,93962.40
2023-09-23T09:25:39.608Z,93955.60
2023-09-23T09:28:07.382Z,93954.00
2023-09-23T09:30:35.003Z,93959.20
2023-09-23T09:33:02.801Z,93952.40
2023-09-23T09:35:30.648Z,93945.60
2023-09-23T09:38:11.176Z,93944.60
2023-09-23T09:40:45.097Z,93939.20
2023-09-23T09:43:12.904Z,93944.60
2023-09-23T09:45:45.829Z,93941.40
2023-09-23T09:48:13.626Z,93944.60
2023-09-23T09:50:41.374Z,93949.60
2023-09-23T09:53:10.153Z,93952.20
2023-09-23T09:55:38.163Z,93949.20
2023-09-23T09:58:05.896Z,93940.60
2023-09-23T10:00:35.103Z,93938.00
2023-09-23T10:03:03.195Z,93943.80
2023-09-23T10:05:31.250Z,93940.80
2023-09-23T10:07:59.069Z,93948.40
2023-09-23T10:10:26.851Z,93941.40
2023-09-23T10:12:55.781Z,93941.60
2023-09-23T10:15:23.509Z,93940.40
2023-09-23T10:17:51.367Z,93945.80
2023-09-23T10:20:19.320Z,93951.20
2023-09-23T10:22:47.751Z,93956.60
2023-09-23T10:25:15.543Z,93952.60
2023-09-23T10:27:43.556Z,93951.40
2023-09-23T10:30:11.919Z,93952.60
2023-09-23T10:32:39.786Z,93950.20
2023-09-23T10:35:07.529Z,93957.00
2023-09-23T10:37:36.354Z,93969.20
2023-09-23T10:40:10.262Z,93980.40
2023-09-23T10:42:39.038Z,93980.40
2023-09-23T10:45:06.713Z,93960.40
2023-09-23T10:47:37.087Z,93941.60
2023-09-23T10:50:07.867Z,93942.40
2023-09-23T10:52:35.769Z,93928.00
2023-09-23T10:55:03.866Z,93913.00
2023-09-23T10:57:34.392Z,93925.00
2023-09-23T11:00:02.447Z,93919.00
2023-09-23T11:02:31.409Z,93904.20
2023-09-23T11:04:59.752Z,93890.20
2023-09-23T11:07:28.250Z,93881.20
2023-09-23T11:09:56.288Z,93890.00
2023-09-23T11:12:29.316Z,93890.40
2023-09-23T11:14:56.965Z,93887.40
2023-09-23T11:17:27.176Z,93877.20
2023-09-23T11:19:55.081Z,93874.00
2023-09-23T11:22:22.768Z,93863.40
2023-09-23T11:24:51.158Z,93856.40
2023-09-23T11:27:19.016Z,93854.80
2023-09-23T11:29:46.638Z,93859.20
2023-09-23T11:32:14.315Z,93863.60
2023-09-23T11:34:41.968Z,93862.40
2023-09-23T11:37:09.841Z,93867.80
2023-09-23T11:39:38.774Z,93870.00
2023-09-23T11:42:06.482Z,93862.20
2023-09-23T11:44:35.862Z,93862.80
2023-09-23T11:47:03.851Z,93870.60
2023-09-23T11:49:31.696Z,93880.20
2023-09-23T11:52:00.354Z,93876.20
2023-09-23T11:54:30.243Z,93880.60
2023-09-23T11:56:58.050Z,93880.40
2023-09-23T11:59:25.981Z,93873.40
2023-09-23T12:01:53.654Z,93869.00
2023-09-23T12:04:41.446Z,93879.00
2023-09-23T12:07:09.769Z,93899.00
2023-09-23T12:09:38.430Z,93904.80
2023-09-23T12:12:06.654Z,93895.40
2023-09-23T12:14:34.355Z,93888.80
2023-09-23T12:17:01.979Z,93892.20
2023-09-23T12:19:30.008Z,93891.80
2023-09-23T12:21:57.626Z,93894.40
2023-09-23T12:24:25.348Z,93893.00
2023-09-23T12:26:53.068Z,93898.40
2023-09-23T12:29:20.695Z,93912.80
2023-09-23T12:31:48.364Z,93916.80
2023-09-23T12:34:16.126Z,93911.20
2023-09-23T12:36:44.229Z,93909.80
2023-09-23T12:39:12.284Z,93914.80
2023-09-23T12:41:40.128Z,93911.60
2023-09-23T12:44:08.147Z,93908.00
2023-09-23T12:46:37.104Z,93904.20
2023-09-23T12:49:04.816Z,93900.00
2023-09-23T12:51:33.028Z,93913.40
2023-09-23T12:54:00.879Z,93923.00
2023-09-23T12:56:28.616Z,93934.80
2023-09-23T12:58:58.018Z,93939.80
2023-09-23T13:01:25.925Z,93945.80
2023-09-23T13:03:53.850Z,93956.60
2023-09-23T13:06:21.609Z,93952.40
2023-09-23T13:08:49.377Z,93955.80
2023-09-23T13:11:17.869Z,93968.40
2023-09-23T13:13:51.138Z,93972.00
2023-09-23T13:16:19.562Z,93997.60
2023-09-23T13:18:47.568Z,94029.40
2023-09-23T13:21:15.475Z,94037.20
2023-09-23T13:23:43.479Z,94030.80
2023-09-23T13:26:11.309Z,94016.40
2023-09-23T13:28:40.885Z,94038.40
2023-09-23T13:31:08.660Z,94052.60
2023-09-23T13:33:36.549Z,94053.60
2023-09-23T13:36:05.670Z,94045.60
2023-09-23T13:38:33.576Z,94058.20
2023-09-23T13:41:02.676Z,94054.60
2023-09-23T13:43:30.386Z,94053.40
2023-09-23T13:45:58.089Z,94051.80
2023-09-23T13:48:26.048Z,94052.20
2023-09-23T13:50:53.953Z,94049.40
2023-09-23T13:53:22.554Z,94046.00
2023-09-23T13:55:50.972Z,94060.20
2023-09-23T13:58:18.768Z,94067.80
2023-09-23T14:00:47.893Z,94077.40
2023-09-23T14:03:19.136Z,94079.80
2023-09-23T14:05:47.413Z,94083.80
2023-09-23T14:08:15.205Z,94096.60
2023-09-23T14:10:43.065Z,94100.40
2023-09-23T14:13:10.705Z,94110.80
2023-09-23T14:15:38.330Z,94109.20
2023-09-23T14:18:08.598Z,94125.80
2023-09-23T14:20:37.058Z,94131.80
2023-09-23T14:23:04.917Z,94128.80
2023-09-23T14:25:32.622Z,94138.40
2023-09-23T14:28:00.326Z,94144.00
2023-09-23T14:30:27.989Z,94148.00
2023-09-23T14:32:55.744Z,94146.20
2023-09-23T14:35:23.931Z,94141.60
2023-09-23T14:37:51.836Z,94142.00
2023-09-23T14:40:19.572Z,94143.40
2023-09-23T14:42:47.180Z,94147.60
2023-09-23T14:45:16.913Z,94150.20
2023-09-23T14:47:46.512Z,94148.20
2023-09-23T14:50:14.410Z,94154.80
2023-09-23T14:52:42.178Z,94165.40
2023-09-23T14:55:09.892Z,94168.40
2023-09-23T14:57:37.533Z,94169.40
2023-09-23T15:00:06.692Z,94176.40
2023-09-23T15:02:34.647Z,94182.60
2023-09-23T15:05:02.551Z,94189.00
2023-09-23T15:07:30.497Z,94185.80
2023-09-23T15:09:58.748Z,94189.80
2023-09-23T15:12:26.406Z,94194.60
2023-09-23T15:14:54.699Z,94195.60
2023-09-23T15:17:22.637Z,94206.80
2023-09-23T15:19:50.602Z,94218.20
2023-09-23T15:22:18.300Z,94227.80
2023-09-23T15:24:45.987Z,94232.20
2023-09-23T15:27:15.666Z,94234.40
2023-09-23T15:29:43.358Z,94239.40
2023-09-23T15:32:11.328Z,94244.60
2023-09-23T15:34:39.002Z,94247.80
2023-09-23T15:37:06.707Z,94241.60
2023-09-23T15:39:34.397Z,94236.00
2023-09-23T15:42:02.880Z,94229.60
2023-09-23T15:44:30.729Z,94230.60
2023-09-23T15:46:59.182Z,94235.60
2023-09-23T15:49:28.175Z,94242.00
2023-09-23T15:51:56.075Z,94240.40
2023-09-23T15:54:24.931Z,94245.20
2023-09-23T15:56:56.612Z,94249.60
2023-09-23T15:59:28.451Z,94256.60
2023-09-23T16:01:56.442Z,94259.20
2023-09-23T16:04:24.155Z,94260.60
2023-09-23T16:06:52.092Z,94264.20
2023-09-23T16:09:20.126Z,94261.80
2023-09-23T16:11:47.808Z,94263.00
2023-09-23T16:14:15.850Z,94262.40
2023-09-23T16:16:43.644Z,94267.60
2023-09-23T16:19:11.631Z,94270.60
2023-09-23T16:21:39.873Z,94274.00
2023-09-23T16:24:07.545Z,94285.60
2023-09-23T16:26:35.323Z,94285.80
2023-09-23T16:29:04.606Z,94282.80
2023-09-23T16:31:32.497Z,94282.20
2023-09-23T16:34:00.381Z,94278.40
2023-09-23T16:36:28.144Z,94281.20
2023-09-23T16:38:56.000Z,94290.00
2023-09-23T16:41:23.691Z,94288.40
2023-09-23T16:43:51.394Z,94292.80
2023-09-23T16:46:19.130Z,94293.80
2023-09-23T16:48:47.022Z,94302.00
2023-09-23T16:51:14.992Z,94310.00
2023-09-23T16:53:42.788Z,94309.80
2023-09-23T16:56:10.549Z,94300.60
2023-09-23T16:58:38.215Z,94302.40
2023-09-23T17:01:06.858Z,94309.00
2023-09-23T17:03:35.288Z,94309.60
2023-09-23T17:06:03.270Z,94312.20
2023-09-23T17:08:30.949Z,94311.20
2023-09-23T17:10:58.653Z,94315.80
2023-09-23T17:13:26.619Z,94322.20
2023-09-23T17:15:55.347Z,94331.40
2023-09-23T17:18:24.121Z,94343.80
2023-09-23T17:20:52.054Z,94352.00
2023-09-23T17:23:20.042Z,94354.60
2023-09-23T17:25:48.736Z,94351.60
2023-09-23T17:28:16.492Z,94351.40
2023-09-23T17:30:44.140Z,94350.60
2023-09-23T17:33:12.573Z,94355.60
2023-09-23T17:35:40.595Z,94362.20
2023-09-23T17:38:08.287Z,94365.80
2023-09-23T17:40:35.919Z,94368.80
2023-09-23T17:43:03.639Z,94367.40
2023-09-23T17:45:31.500Z,94367.80
2023-09-23T17:47:59.360Z,94367.00
2023-09-23T17:50:27.236Z,94366.40
2023-09-23T17:52:55.274Z,94374.80
2023-09-23T17:55:23.067Z,94376.00
2023-09-23T17:57:50.811Z,94376.80
2023-09-23T18:00:18.933Z,94382.40
2023-09-23T18:02:47.009Z,94395.00
2023-09-23T18:05:15.362Z,94394.00
2023-09-23T18:07:43.196Z,94399.20
2023-09-23T18:10:10.852Z,94400.80
2023-09-23T18:12:38.729Z,94397.80
2023-09-23T18:15:07.067Z,94401.00
2023-09-23T18:17:37.418Z,94398.20
2023-09-23T18:20:05.378Z,94394.40
2023-09-23T18:22:33.055Z,94397.60
2023-09-23T18:25:00.770Z,94391.60
2023-09-23T18:27:30.387Z,94398.80
2023-09-23T18:29:58.083Z,94402.20
2023-09-23T18:32:25.802Z,94411.80
2023-09-23T18:34:53.988Z,94416.20
2023-09-23T18:37:21.906Z,94428.40
2023-09-23T18:39:49.554Z,94427.40
2023-09-23T18:42:17.257Z,94438.60
2023-09-23T18:44:46.178Z,94444.20
2023-09-23T18:47:13.779Z,94443.40
2023-09-23T18:49:41.432Z,94440.00
2023-09-23T18:52:09.162Z,94436.60
2023-09-23T18:54:36.733Z,94437.80
2023-09-23T18:57:04.662Z,94441.00
2023-09-23T18:59:32.321Z,94443.60
2023-09-23T19:02:00.288Z,94447.80
2023-09-23T19:04:28.037Z,94445.80
2023-09-23T19:06:55.829Z,94446.80
2023-09-23T19:09:23.695Z,94447.00
2023-09-23T19:11:51.419Z,94444.80
2023-09-23T19:14:21.584Z,94436.80
2023-09-23T19:16:50.934Z,94439.80
2023-09-23T19:19:19.080Z,94452.20
2023-09-23T19:21:46.727Z,94456.20
2023-09-23T19:24:14.347Z,94455.20
2023-09-23T19:26:55.451Z,94458.00
2023-09-23T19:29:24.655Z,94467.60
2023-09-23T19:31:54.297Z,94467.80
2023-09-23T19:34:27.982Z,94474.00
2023-09-23T19:36:57.065Z,94479.20
2023-09-23T19:39:26.793Z,94483.80
2023-09-23T19:41:55.406Z,94482.60
2023-09-23T19:44:23.364Z,94488.00
2023-09-23T19:46:51.714Z,94483.20
2023-09-23T19:49:19.543Z,94487.40
2023-09-23T19:51:47.264Z,94498.20
2023-09-23T19:54:14.937Z,94492.60
2023-09-23T19:56:44.620Z,94493.60
2023-09-23T19:59:12.467Z,94487.60
2023-09-23T20:01:40.097Z,94485.80
2023-09-23T20:04:07.973Z,94484.60
2023-09-23T20:06:36.133Z,94480.20
2023-09-23T20:09:04.695Z,94479.80
2023-09-23T20:11:32.391Z,94480.80
2023-09-23T20:14:00.493Z,94480.80
2023-09-23T20:16:28.269Z,94478.40
2023-09-23T20:18:56.012Z,94465.80
2023-09-23T20:21:23.710Z,94463.20
2023-09-23T20:23:52.701Z,94453.20
2023-09-23T20:26:21.224Z,94462.80
2023-09-23T20:28:49.772Z,94473.80
2023-09-23T20:31:17.766Z,94488.80
2023-09-23T20:33:45.615Z,94495.80
2023-09-23T20:36:14.521Z,94499.20
2023-09-23T20:38:42.272Z,94505.60
2023-09-23T20:41:10.878Z,94509.60
2023-09-23T20:43:39.066Z,94502.60
2023-09-23T20:46:07.947Z,94508.40
2023-09-23T20:48:35.693Z,94514.80
2023-09-23T20:51:03.562Z,94516.60
2023-09-23T20:53:33.259Z,94522.00
2023-09-23T20:56:00.879Z,94524.60
2023-09-23T20:58:29.050Z,94522.60
2023-09-23T21:00:56.790Z,94529.20
2023-09-23T21:03:24.608Z,94530.20
2023-09-23T21:05:53.004Z,94538.60
2023-09-23T21:08:21.621Z,94545.40
2023-09-23T21:10:49.289Z,94547.20
2023-09-23T21:13:18.267Z,94546.80
2023-09-23T21:15:46.276Z,94551.80
2023-09-23T21:18:14.043Z,94553.40
2023-09-23T21:20:41.743Z,94547.40
2023-09-23T21:23:09.314Z,94547.80
2023-09-23T21:25:37.056Z,94546.80
2023-09-23T21:28:04.836Z,94542.00
2023-09-23T21:30:32.763Z,94542.80
2023-09-23T21:33:00.835Z,94542.40
2023-09-23T21:35:28.764Z,94544.00
2023-09-23T21:37:56.488Z,94539.40
2023-09-23T21:40:24.172Z,94544.00
2023-09-23T21:42:52.701Z,94543.80
2023-09-23T21:45:20.415Z,94542.20
2023-09-23T21:47:48.482Z,94545.00
2023-09-23T21:50:16.242Z,94543.40
2023-09-23T21:52:44.428Z,94544.00
2023-09-23T21:55:12.117Z,94540.60
2023-09-23T21:57:39.879Z,94545.60
2023-09-23T22:00:26.434Z,94540.00
2023-09-23T22:02:55.001Z,94541.40
2023-09-23T22:05:22.845Z,94540.40
2023-09-23T22:07:50.755Z,94547.60
2023-09-23T22:10:18.894Z,94547.60
2023-09-23T22:12:46.949Z,94547.20
2023-09-23T22:15:15.595Z,94549.40
2023-09-23T22:17:43.849Z,94541.40
2023-09-23T22:20:12.164Z,94544.00
2023-09-23T22:22:39.898Z,94546.40
2023-09-23T22:25:12.914Z,94545.40
2023-09-23T22:27:40.588Z,94547.00
2023-09-23T22:30:09.083Z,94546.00
2023-09-23T22:32:36.924Z,94550.20
2023-09-23T22:35:04.716Z,94550.00
2023-09-23T22:37:32.281Z,94546.80
2023-09-23T22:40:02.962Z,94550.60
2023-09-23T22:42:30.985Z,94552.40
2023-09-23T22:44:58.737Z,94556.20
2023-09-23T22:47:26.737Z,94559.80
2023-09-23T22:49:57.296Z,94562.20
2023-09-23T22:52:27.133Z,94563.80
2023-09-23T22:54:55.263Z,94567.60
2023-09-23T22:57:23.194Z,94574.40
2023-09-23T22:59:54.051Z,94576.20
2023-09-23T23:02:21.770Z,94578.00
2023-09-23T23:04:51.104Z,94578.40
2023-09-23T23:07:18.979Z,94577.20
2023-09-23T23:09:49.296Z,94564.40
2023-09-23T23:12:18.249Z,94565.40
2023-09-23T23:14:46.058Z,94566.80
2023-09-23T23:17:14.979Z,94568.60
2023-09-23T23:19:42.757Z,94569.60
2023-09-23T23:22:10.998Z,94565.20
2023-09-23T23:24:41.634Z,94561.60
2023-09-23T23:27:11.592Z,94563.40
2023-09-23T23:29:40.343Z,94563.20
2023-09-23T23:32:08.102Z,94563.40
2023-09-23T23:34:35.774Z,94565.60
2023-09-23T23:37:07.080Z,94565.00
2023-09-23T23:39:34.895Z,94558.80
2023-09-23T23:42:05.156Z,94554.60
2023-09-23T23:44:33.248Z,94560.20
2023-09-23T23:47:00.960Z,94558.20
2023-09-23T23:49:28.718Z,94561.40
2023-09-23T23:51:56.480Z,94561.80
2023-09-23T23:54:24.823Z,94560.40
2023-09-23T23:56:53.217Z,94562.00
2023-09-23T23:59:20.882Z,94559.80
